createdAt,value
2023-12-08T00:03:54.765Z,100667.95
2023-12-08T00:09:02.781Z,100671.64
2023-12-08T00:14:10.407Z,100671.13
2023-12-08T00:19:17.802Z,100664.89
2023-12-08T00:24:25.866Z,100659.98
2023-12-08T00:29:34.040Z,100663.65
2023-12-08T00:34:42.226Z,100660.77
2023-12-08T00:39:49.624Z,100651.07
2023-12-08T00:44:57.061Z,100645.37
2023-12-08T00:50:06.656Z,100642.11
2023-12-08T00:55:14.374Z,100649.66
2023-12-08T01:00:22.552Z,100657.23
2023-12-08T01:05:30.423Z,100654.85
2023-12-08T01:10:37.743Z,100666.33
2023-12-08T01:15:45.249Z,100666.15
2023-12-08T01:20:53.371Z,100668.58
2023-12-08T01:26:03.117Z,100663.37
2023-12-08T01:31:10.525Z,100664.73
2023-12-08T01:36:39.354Z,100660.86
2023-12-08T01:41:45.748Z,100651.02
2023-12-08T01:46:54.699Z,100640.58
2023-12-08T01:52:04.265Z,100637.39
2023-12-08T01:57:12.168Z,100634.52
2023-12-08T02:02:19.961Z,100632.32
2023-12-08T02:07:28.799Z,100631.86
2023-12-08T02:12:36.782Z,100624.23
2023-12-08T02:17:44.891Z,100616.65
2023-12-08T02:22:52.652Z,100609.02
2023-12-08T02:28:00.284Z,100606.98
2023-12-08T02:33:14.678Z,100601.29
2023-12-08T02:38:26.129Z,100595.51
2023-12-08T02:43:33.516Z,100586.88
2023-12-08T02:48:40.944Z,100581.92
2023-12-08T02:53:48.447Z,100575.95
2023-12-08T02:58:56.958Z,100574.90
2023-12-08T03:04:04.389Z,100564.45
2023-12-08T03:09:11.914Z,100561.04
2023-12-08T03:14:20.818Z,100545.64
2023-12-08T03:19:28.292Z,100547.96
2023-12-08T03:24:35.708Z,100547.79
2023-12-08T03:29:45.982Z,100542.22
2023-12-08T03:34:53.372Z,100539.52
2023-12-08T03:40:00.650Z,100533.55
2023-12-08T03:45:09.267Z,100536.06
2023-12-08T03:50:16.782Z,100540.49
2023-12-08T03:55:24.093Z,100539.30
2023-12-08T04:00:31.483Z,100547.23
2023-12-08T04:05:39.008Z,100543.48
2023-12-08T04:10:47.079Z,100533.00
2023-12-08T04:15:54.481Z,100532.30
2023-12-08T04:21:01.929Z,100530.64
2023-12-08T04:26:11.411Z,100517.61
2023-12-08T04:31:18.756Z,100505.91
2023-12-08T04:36:26.058Z,100491.88
2023-12-08T04:41:33.559Z,100488.95
2023-12-08T04:46:41.285Z,100499.55
2023-12-08T04:51:49.331Z,100499.78
2023-12-08T04:56:56.833Z,100501.25
2023-12-08T05:02:04.165Z,100508.42
2023-12-08T05:07:11.865Z,100498.54
2023-12-08T05:12:19.583Z,100497.55
2023-12-08T05:17:27.143Z,100488.98
2023-12-08T05:22:37.458Z,100479.41
2023-12-08T05:27:45.218Z,100487.26
2023-12-08T05:32:52.720Z,100489.89
2023-12-08T05:38:00.239Z,100505.64
2023-12-08T05:43:07.541Z,100512.64
2023-12-08T05:48:15.152Z,100507.33
2023-12-08T05:53:23.797Z,100499.72
2023-12-08T05:58:31.125Z,100499.39
2023-12-08T06:03:38.430Z,100506.30
2023-12-08T06:08:45.687Z,100511.08
2023-12-08T06:13:53.419Z,100502.63
2023-12-08T06:19:01.091Z,100500.02
2023-12-08T06:24:08.704Z,100494.98
2023-12-08T06:29:16.059Z,100493.02
2023-12-08T06:34:23.431Z,100482.25
2023-12-08T06:39:30.776Z,100479.23
2023-12-08T06:44:38.011Z,100480.80
2023-12-08T06:49:45.832Z,100486.23
2023-12-08T06:54:53.617Z,100487.37
2023-12-08T07:00:01.798Z,100477.65
2023-12-08T07:05:10.754Z,100471.48
2023-12-08T07:10:18.196Z,100456.20
2023-12-08T07:15:26.009Z,100438.79
2023-12-08T07:20:35.618Z,100449.79
2023-12-08T07:25:42.954Z,100462.19
2023-12-08T07:30:50.311Z,100460.81
2023-12-08T07:35:58.353Z,100465.90
2023-12-08T07:41:06.041Z,100452.80
2023-12-08T07:46:13.549Z,100461.03
2023-12-08T07:51:21.384Z,100467.39
2023-12-08T07:56:28.831Z,100461.05
2023-12-08T08:01:36.683Z,100448.69
2023-12-08T08:06:43.998Z,100444.09
2023-12-08T08:11:51.468Z,100439.02
2023-12-08T08:16:58.899Z,100439.60
2023-12-08T08:22:28.807Z,100443.87
2023-12-08T08:27:34.930Z,100447.61
2023-12-08T08:32:42.472Z,100454.08
2023-12-08T08:37:49.795Z,100464.64
2023-12-08T08:42:57.374Z,100466.62
2023-12-08T08:48:06.479Z,100468.00
2023-12-08T08:53:13.867Z,100470.20
2023-12-08T08:58:21.244Z,100475.02
2023-12-08T09:03:28.679Z,100475.66
2023-12-08T09:08:36.186Z,100475.27
2023-12-08T09:13:43.501Z,100474.57
2023-12-08T09:18:50.959Z,100455.01
2023-12-08T09:23:58.498Z,100433.52
2023-12-08T09:29:06.218Z,100430.95
2023-12-08T09:34:13.873Z,100422.70
2023-12-08T09:39:21.489Z,100410.71
2023-12-08T09:44:31.574Z,100409.36
2023-12-08T09:49:43.908Z,100409.69
2023-12-08T09:54:51.248Z,100409.02
2023-12-08T10:00:01.646Z,100388.15
2023-12-08T10:05:13.267Z,100385.16
2023-12-08T10:10:21.368Z,100378.27
2023-12-08T10:15:29.915Z,100377.07
2023-12-08T10:20:37.281Z,100368.24
2023-12-08T10:25:45.308Z,100370.65
2023-12-08T10:30:54.769Z,100370.42
2023-12-08T10:36:02.419Z,100364.11
2023-12-08T10:41:12.889Z,100359.94
2023-12-08T10:46:21.901Z,100347.59
2023-12-08T10:51:29.904Z,100331.50
2023-12-08T10:56:37.318Z,100322.59
2023-12-08T11:01:47.305Z,100307.27
2023-12-08T11:07:04.018Z,100308.16
2023-12-08T11:12:15.661Z,100308.85
2023-12-08T11:17:32.599Z,100295.92
2023-12-08T11:22:40.113Z,100289.30
2023-12-08T11:27:59.584Z,100289.74
2023-12-08T11:33:14.601Z,100296.71
2023-12-08T11:38:30.601Z,100315.35
2023-12-08T11:43:38.080Z,100309.17
2023-12-08T11:48:46.377Z,100315.54
2023-12-08T11:53:57.710Z,100315.21
2023-12-08T11:59:08.135Z,100310.27
2023-12-08T12:04:16.012Z,100308.05
2023-12-08T12:09:23.975Z,100301.39
2023-12-08T12:14:33.728Z,100301.23
2023-12-08T12:19:41.509Z,100299.73
2023-12-08T12:24:49.212Z,100294.52
2023-12-08T12:29:56.745Z,100291.58
2023-12-08T12:35:04.388Z,100279.83
2023-12-08T12:40:14.881Z,100273.23
2023-12-08T12:45:31.379Z,100272.86
2023-12-08T12:50:50.855Z,100278.10
2023-12-08T12:56:09.443Z,100273.09
2023-12-08T13:01:17.317Z,100262.09
2023-12-08T13:06:31.523Z,100260.08
2023-12-08T13:11:39.124Z,100257.55
2023-12-08T13:16:46.434Z,100264.00
2023-12-08T13:21:53.696Z,100274.46
2023-12-08T13:27:01.105Z,100278.56
2023-12-08T13:32:09.156Z,100280.61
2023-12-08T13:37:16.576Z,100273.06
2023-12-08T13:42:24.460Z,100272.73
2023-12-08T13:47:32.395Z,100270.56
2023-12-08T13:52:40.307Z,100256.89
2023-12-08T13:57:47.911Z,100248.96
2023-12-08T14:02:55.379Z,100246.25
2023-12-08T14:08:02.926Z,100249.81
2023-12-08T14:13:10.236Z,100239.66
2023-12-08T14:18:17.779Z,100238.46
2023-12-08T14:23:25.462Z,100228.08
2023-12-08T14:28:32.911Z,100227.71
2023-12-08T14:33:40.413Z,100232.21
2023-12-08T14:38:48.568Z,100237.54
2023-12-08T14:43:55.950Z,100239.13
2023-12-08T14:49:05.279Z,100237.57
2023-12-08T14:54:14.113Z,100244.95
2023-12-08T14:59:23.424Z,100242.25
2023-12-08T15:04:31.043Z,100242.35
2023-12-08T15:09:38.452Z,100235.80
2023-12-08T15:14:45.723Z,100233.89
2023-12-08T15:19:55.381Z,100229.27
2023-12-08T15:25:03.580Z,100226.35
2023-12-08T15:30:12.977Z,100214.17
2023-12-08T15:35:21.320Z,100223.43
2023-12-08T15:40:28.833Z,100231.15
2023-12-08T15:45:36.123Z,100238.61
2023-12-08T15:50:43.742Z,100248.39
2023-12-08T15:55:51.288Z,100249.08
2023-12-08T16:00:59.298Z,100250.45
2023-12-08T16:06:14.035Z,100245.77
2023-12-08T16:11:28.631Z,100247.71
2023-12-08T16:16:35.968Z,100249.17
2023-12-08T16:21:43.526Z,100247.12
2023-12-08T16:26:50.891Z,100245.83
2023-12-08T16:31:58.551Z,100250.45
2023-12-08T16:37:06.686Z,100246.27
2023-12-08T16:42:14.146Z,100247.02
2023-12-08T16:47:22.008Z,100246.98
2023-12-08T16:52:30.215Z,100250.15
2023-12-08T16:57:38.555Z,100241.14
2023-12-08T17:02:46.118Z,100237.40
2023-12-08T17:07:53.464Z,100233.49
2023-12-08T17:13:00.798Z,100236.55
2023-12-08T17:18:08.493Z,100240.23
2023-12-08T17:23:16.391Z,100242.12
2023-12-08T17:28:23.737Z,100243.98
2023-12-08T17:33:31.257Z,100247.23
2023-12-08T17:38:38.664Z,100251.29
2023-12-08T17:43:46.040Z,100248.80
2023-12-08T17:48:53.910Z,100236.71
2023-12-08T17:54:01.321Z,100228.62
2023-12-08T17:59:08.608Z,100230.14
2023-12-08T18:04:15.922Z,100230.85
2023-12-08T18:09:23.430Z,100230.70
2023-12-08T18:14:30.857Z,100229.74
2023-12-08T18:19:38.328Z,100229.42
2023-12-08T18:24:45.708Z,100232.54
2023-12-08T18:29:54.739Z,100235.64
2023-12-08T18:35:02.192Z,100234.48
2023-12-08T18:40:12.410Z,100227.92
2023-12-08T18:45:20.120Z,100232.14
2023-12-08T18:50:27.706Z,100231.50
2023-12-08T18:55:35.062Z,100231.33
2023-12-08T19:00:42.374Z,100229.10
2023-12-08T19:05:52.430Z,100226.42
2023-12-08T19:10:59.841Z,100222.23
2023-12-08T19:16:07.663Z,100223.63
2023-12-08T19:21:15.720Z,100216.27
2023-12-08T19:26:23.112Z,100216.96
2023-12-08T19:31:30.601Z,100216.84
2023-12-08T19:36:38.141Z,100207.89
2023-12-08T19:41:45.544Z,100199.15
2023-12-08T19:46:54.867Z,100201.73
2023-12-08T19:52:02.286Z,100199.41
2023-12-08T19:57:11.546Z,100197.60
2023-12-08T20:02:19.088Z,100203.53
2023-12-08T20:07:26.688Z,100202.04
2023-12-08T20:12:34.463Z,100195.13
2023-12-08T20:17:41.801Z,100194.67
2023-12-08T20:22:49.269Z,100204.97
2023-12-08T20:27:56.762Z,100209.39
2023-12-08T20:33:04.813Z,100209.05
2023-12-08T20:38:12.352Z,100209.39
2023-12-08T20:43:23.894Z,100205.33
2023-12-08T20:48:31.398Z,100206.36
2023-12-08T20:53:38.779Z,100203.03
2023-12-08T20:58:46.373Z,100201.35
2023-12-08T21:03:54.121Z,100201.38
2023-12-08T21:09:02.368Z,100201.73
2023-12-08T21:14:09.737Z,100205.11
2023-12-08T21:19:18.044Z,100203.97
2023-12-08T21:24:27.212Z,100209.02
2023-12-08T21:29:34.656Z,100206.15
2023-12-08T21:34:42.142Z,100210.35
2023-12-08T21:39:49.451Z,100211.34
2023-12-08T21:44:56.847Z,100216.89
2023-12-08T21:50:05.214Z,100212.66
2023-12-08T21:55:12.906Z,100213.17
2023-12-08T22:00:21.263Z,100220.95
2023-12-08T22:05:29.689Z,100222.68
2023-12-08T22:10:37.046Z,100216.83
2023-12-08T22:15:44.481Z,100215.69
2023-12-08T22:20:51.869Z,100215.05
2023-12-08T22:25:59.265Z,100216.28
2023-12-08T22:31:08.057Z,100210.79
2023-12-08T22:36:15.708Z,100214.38
2023-12-08T22:41:23.117Z,100222.20
2023-12-08T22:46:30.439Z,100227.32
2023-12-08T22:51:48.573Z,100232.10
2023-12-08T22:57:05.313Z,100233.19
2023-12-08T23:02:12.675Z,100224.44
2023-12-08T23:07:20.001Z,100226.13
2023-12-08T23:12:27.439Z,100231.70
2023-12-08T23:17:37.818Z,100232.58
2023-12-08T23:22:45.147Z,100229.08
2023-12-08T23:27:52.665Z,100231.98
2023-12-08T23:33:02.603Z,100236.58
2023-12-08T23:38:10.137Z,100237.79
2023-12-08T23:43:17.737Z,100238.65
2023-12-08T23:48:25.146Z,100244.09
2023-12-08T23:53:32.622Z,100244.80
2023-12-08T23:58:39.940Z,100247.36
